Time;durP1;ratioP1;P1;durP2;ratioP2;P2;SDS_P1;SDS_P2;PMS_P1;PMS_P2;Temp;Humidity;BMP_temperature;BMP_pressure;BME280_temperature;BME280_humidity;BME280_pressure;Samples;Min_cycle;Max_cycle;Signal;HPM_P1;HPM_P2
2023/10/19 00:01:58;;;;;;;;;;;;;;;-140.72;100.00;61829.38;5069781;28;19937;-70
2023/10/19 00:04:31;;;;;;;;;;;;;;;-140.72;100.00;61853.78;5064636;28;19917;-70
2023/10/19 00:06:57;;;;;;;;;;;;;;;-140.72;100.00;61872.06;5075915;28;19920;-70
2023/10/19 00:09:22;;;;;;;;;;;;;;;-140.72;100.00;61847.66;5073710;28;19939;-70
2023/10/19 00:11:50;;;;;;;;;;;;;;;-140.72;100.00;61896.47;5066428;28;19927;-70
2023/10/19 00:14:17;;;;;;;;;;;;;;;-140.72;100.00;61914.78;5075197;28;19932;-70
2023/10/19 00:16:44;;;;;;;;;;;;;;;-140.72;100.00;61939.19;5067898;28;20027;-69
2023/10/19 00:19:10;;;;;;;;;;;;;;;-140.72;100.00;61920.88;5069300;28;20011;-70
2023/10/19 00:21:50;;;;;;;;;;;;;;;-140.72;100.00;61955.47;5066174;28;20021;-70
2023/10/19 00:24:16;;;;;;;;;;;;;;;-140.72;100.00;61996.16;5070779;28;19921;-70
2023/10/19 00:26:42;;;;;;;;;;;;;;;-140.72;100.00;61971.75;5072857;28;19964;-69
2023/10/19 00:31:51;;;;;;;;;;;;;;;-140.72;100.00;62000.22;5064193;28;19966;-69
2023/10/19 00:34:16;;;;;;;;;;;;;;;-140.72;100.00;61973.78;5086597;28;19920;-70
2023/10/19 00:36:42;;;;;;;;;;;;;;;-140.72;100.00;61990.03;5069122;28;20301;-70
2023/10/19 00:39:15;;;;;;;;;;;;;;;-140.72;100.00;62010.38;5079844;28;19943;-70
2023/10/19 00:41:42;;;;;;;;;;;;;;;-140.72;100.00;62016.50;5077980;28;19921;-70
2023/10/19 00:44:22;;;;;;;;;;;;;;;-140.72;100.00;62036.84;5075085;28;19923;-70
2023/10/19 00:46:50;;;;;;;;;;;;;;;-140.72;100.00;62040.91;5068136;28;20402;-70
2023/10/19 00:49:15;;;;;;;;;;;;;;;-140.72;100.00;62024.63;5072210;28;20375;-70
2023/10/19 00:54:33;;;;;;;;;;;;;;;-140.72;100.00;62073.44;5075689;28;20389;-70
2023/10/19 00:57:10;;;;;;;;;;;;;;;-140.72;100.00;62081.56;5072241;28;19920;-70
2023/10/19 00:59:39;;;;;;;;;;;;;;;-140.72;100.00;62112.09;5068562;28;20271;-70
2023/10/19 01:05:04;;;;;;;;;;;;;;;-140.72;100.00;62081.56;5080701;28;19923;-71
2023/10/19 01:07:30;;;;;;;;;;;;;;;-140.72;100.00;62097.84;5062745;28;19921;-70
2023/10/19 01:09:56;;;;;;;;;;;;;;;-140.72;100.00;62085.66;5069507;28;19924;-70
2023/10/19 01:15:12;;;;;;;;;;;;;;;-140.72;100.00;62114.13;5072159;28;19920;-70
2023/10/19 01:17:38;;;;;;;;;;;;;;;-140.72;100.00;62138.53;5067943;28;19920;-70
2023/10/19 01:28:42;;;;;;;;;;;;;;;-140.72;100.00;62203.63;5071994;28;20351;-70
2023/10/19 01:31:22;;;;;;;;;;;;;;;-140.72;100.00;62203.63;5083743;28;20015;-70
2023/10/19 01:33:47;;;;;;;;;;;;;;;-140.72;100.00;62268.72;5072679;28;20049;-69
2023/10/19 01:38:47;;;;;;;;;;;;;;;-140.72;100.00;62282.97;5074089;28;19921;-70
2023/10/19 01:41:13;;;;;;;;;;;;;;;-140.72;100.00;62244.31;5077752;28;20375;-70
2023/10/19 01:43:40;;;;;;;;;;;;;;;-140.72;100.00;62250.41;5071340;28;19928;-70
2023/10/19 01:46:11;;;;;;;;;;;;;;;-140.72;100.00;62293.13;5071915;28;19916;-70
2023/10/19 01:48:37;;;;;;;;;;;;;;;-140.72;100.00;62234.13;5077690;28;19969;-70
2023/10/19 01:51:04;;;;;;;;;;;;;;;-140.72;100.00;62305.34;5069308;28;19928;-70
2023/10/19 01:53:31;;;;;;;;;;;;;;;-140.72;100.00;62276.84;5070878;28;19920;-70
2023/10/19 01:55:59;;;;;;;;;;;;;;;-140.72;100.00;62264.66;5070078;28;19921;-70
2023/10/19 01:58:25;;;;;;;;;;;;;;;-140.72;100.00;62285.00;5066587;28;19921;-70
2023/10/19 02:00:55;;;;;;;;;;;;;;;-140.72;100.00;62236.16;5065908;28;20333;-70
2023/10/19 02:03:23;;;;;;;;;;;;;;;-140.72;100.00;62262.63;5069280;28;19941;-70
2023/10/19 02:05:50;;;;;;;;;;;;;;;-140.72;100.00;62256.50;5066284;28;19927;-70
2023/10/19 02:08:17;;;;;;;;;;;;;;;-140.72;100.00;62248.38;5065634;28;19975;-70
2023/10/19 02:10:46;;;;;;;;;;;;;;;-140.72;100.00;62240.25;5070768;28;19939;-70
2023/10/19 02:13:15;;;;;;;;;;;;;;;-140.72;100.00;62232.09;5060483;28;20031;-70
2023/10/19 02:15:41;;;;;;;;;;;;;;;-140.72;100.00;62213.78;5071472;28;19916;-68
2023/10/19 02:18:08;;;;;;;;;;;;;;;-140.72;100.00;62215.84;5068227;28;19925;-70
2023/10/19 02:20:34;;;;;;;;;;;;;;;-140.72;100.00;62217.88;5070827;28;19917;-70
2023/10/19 02:23:03;;;;;;;;;;;;;;;-140.72;100.00;62203.63;5068716;28;20347;-70
2023/10/19 02:25:30;;;;;;;;;;;;;;;-140.72;100.00;62197.53;5074491;28;19963;-70
2023/10/19 02:27:55;;;;;;;;;;;;;;;-140.72;100.00;62187.34;5071181;28;19928;-70
2023/10/19 02:30:21;;;;;;;;;;;;;;;-140.72;100.00;62183.28;5070799;28;20299;-70
2023/10/19 02:32:47;;;;;;;;;;;;;;;-140.72;100.00;62150.75;5071280;28;19928;-70
2023/10/19 02:35:13;;;;;;;;;;;;;;;-140.72;100.00;62148.72;5073739;28;20383;-70
2023/10/19 02:37:39;;;;;;;;;;;;;;;-140.72;100.00;62191.41;5073973;28;19959;-70
2023/10/19 02:40:12;;;;;;;;;;;;;;;-140.72;100.00;62126.34;5066090;28;19964;-70
2023/10/19 02:42:38;;;;;;;;;;;;;;;-140.72;100.00;62093.78;5074379;28;20015;-70
2023/10/19 02:45:05;;;;;;;;;;;;;;;-140.72;100.00;62095.81;5072392;28;20360;-70
2023/10/19 02:47:30;;;;;;;;;;;;;;;-140.72;100.00;62051.06;5067780;28;19921;-70
2023/10/19 02:49:55;;;;;;;;;;;;;;;-140.72;100.00;62000.22;5066091;28;20463;-71
2023/10/19 02:52:22;;;;;;;;;;;;;;;-140.72;100.00;62024.63;5071912;28;20348;-70
2023/10/19 02:54:47;;;;;;;;;;;;;;;-140.72;100.00;61985.97;5060874;28;19920;-70
2023/10/19 02:57:13;;;;;;;;;;;;;;;-140.72;100.00;61929.03;5074453;28;19916;-71
2023/10/19 02:59:39;;;;;;;;;;;;;;;-140.72;100.00;61945.31;5065665;28;19978;-70
2023/10/19 03:02:15;;;;;;;;;;;;;;;-140.72;100.00;61914.78;5072646;28;19960;-70
2023/10/19 03:04:41;;;;;;;;;;;;;;;-140.72;100.00;61884.28;5065372;28;19920;-70
2023/10/19 03:07:07;;;;;;;;;;;;;;;-140.72;100.00;61874.09;5065136;28;19960;-70
2023/10/19 03:09:36;;;;;;;;;;;;;;;-140.72;100.00;61841.56;5070715;28;19978;-70
2023/10/19 03:12:08;;;;;;;;;;;;;;;-140.72;100.00;61792.75;5065211;28;20344;-70
2023/10/19 03:14:34;;;;;;;;;;;;;;;-140.72;100.00;61817.16;5071006;28;19921;-70
2023/10/19 03:17:03;;;;;;;;;;;;;;;-140.72;100.00;61758.19;5062838;28;19930;-70
2023/10/19 03:19:29;;;;;;;;;;;;;;;-140.72;100.00;61725.63;5076359;28;19921;-70
2023/10/19 03:21:55;;;;;;;;;;;;;;;-140.72;100.00;61695.13;5078190;28;19935;-70
2023/10/19 03:24:23;;;;;;;;;;;;;;;-140.72;100.00;61646.31;5072668;28;19936;-70
2023/10/19 03:26:54;;;;;;;;;;;;;;;-140.72;100.00;61607.66;5068125;28;19948;-71
2023/10/19 03:29:19;;;;;;;;;;;;;;;-140.72;100.00;61571.06;5061590;28;20297;-70
2023/10/19 03:31:45;;;;;;;;;;;;;;;-140.72;100.00;61479.53;5074000;28;20384;-70
2023/10/19 03:34:12;;;;;;;;;;;;;;;-140.72;100.00;61444.97;5067487;28;19928;-70
2023/10/19 03:36:37;;;;;;;;;;;;;;;-140.72;100.00;61386.00;5065965;28;19966;-70
2023/10/19 03:39:11;;;;;;;;;;;;;;;-140.72;100.00;61335.16;5072343;28;19921;-70
2023/10/19 03:41:36;;;;;;;;;;;;;;;-140.72;100.00;61351.41;5069130;28;19925;-70
2023/10/19 03:44:03;;;;;;;;;;;;;;;-140.72;100.00;61270.06;5070552;28;20006;-70
2023/10/19 03:46:28;;;;;;;;;;;;;;;-140.72;100.00;61211.09;5067548;28;20002;-70
2023/10/19 03:49:10;;;;;;;;;;;;;;;-140.72;100.00;61178.56;5082162;28;19920;-70
2023/10/19 03:52:19;;;;;;;;;;;;;;;-140.72;100.00;61168.38;5074915;28;19974;-70
2023/10/19 03:54:28;;;;;;;;;;;;;;;-140.72;100.00;61164.31;5069821;28;19924;-70
2023/10/19 03:56:55;;;;;;;;;;;;;;;-140.72;100.00;61162.28;5073937;28;19921;-70
2023/10/19 03:59:20;;;;;;;;;;;;;;;-140.72;100.00;61074.84;5068265;28;19925;-70
2023/10/19 04:01:45;;;;;;;;;;;;;;;-140.72;100.00;61052.47;5071946;28;19924;-70
2023/10/19 04:04:11;;;;;;;;;;;;;;;-140.72;100.00;61038.22;5066872;28;19954;-70
2023/10/19 04:06:37;;;;;;;;;;;;;;;-140.72;100.00;61009.75;5057892;28;19980;-70
2023/10/19 04:09:04;;;;;;;;;;;;;;;-140.72;100.00;60995.53;5066938;28;19963;-70
2023/10/19 04:11:32;;;;;;;;;;;;;;;-140.72;100.00;60991.47;5063839;28;19920;-72
2023/10/19 04:14:03;;;;;;;;;;;;;;;-140.72;100.00;60971.13;5060855;28;20327;-72
2023/10/19 04:16:28;;;;;;;;;;;;;;;-140.72;100.00;60930.47;5072534;28;20037;-73
2023/10/19 04:18:54;;;;;;;;;;;;;;;-140.72;100.00;60942.66;5072948;28;20068;-73
2023/10/19 04:21:19;;;;;;;;;;;;;;;-140.72;100.00;60871.50;5066327;28;19917;-73
2023/10/19 04:23:46;;;;;;;;;;;;;;;-140.72;100.00;60820.66;5069444;28;19999;-73
2023/10/19 04:26:12;;;;;;;;;;;;;;;-140.72;100.00;60845.06;5072670;28;19923;-72
2023/10/19 04:28:41;;;;;;;;;;;;;;;-140.72;100.00;60767.78;5072334;28;19920;-72
2023/10/19 04:31:07;;;;;;;;;;;;;;;-140.72;100.00;60769.81;5072860;28;19924;-72
2023/10/19 04:33:33;;;;;;;;;;;;;;;-140.72;100.00;60731.19;5072838;28;20020;-73
2023/10/19 04:36:00;;;;;;;;;;;;;;;-140.72;100.00;60686.44;5068974;28;19921;-73
2023/10/19 04:38:26;;;;;;;;;;;;;;;-140.72;100.00;60706.78;5072157;28;19920;-70
2023/10/19 04:40:51;;;;;;;;;;;;;;;-140.72;100.00;60655.94;5066657;28;19993;-70
2023/10/19 04:43:16;;;;;;;;;;;;;;;-140.72;100.00;60621.38;5071259;28;19951;-71
2023/10/19 04:45:42;;;;;;;;;;;;;;;-140.72;100.00;60607.16;5059721;28;19924;-72
2023/10/19 04:48:07;;;;;;;;;;;;;;;-140.72;100.00;60564.44;5063068;28;19920;-70
2023/10/19 04:50:33;;;;;;;;;;;;;;;-140.72;100.00;60519.72;5071733;28;20232;-72
2023/10/19 04:52:58;;;;;;;;;;;;;;;-140.72;100.00;60546.16;5072399;28;19924;-74
2023/10/19 04:55:23;;;;;;;;;;;;;;;-140.72;100.00;60466.84;5071337;28;19979;-70
2023/10/19 04:57:49;;;;;;;;;;;;;;;-140.72;100.00;60438.38;5072448;28;19959;-71
2023/10/19 05:00:15;;;;;;;;;;;;;;;-140.72;100.00;60420.09;5072069;28;20991;-71
2023/10/19 05:02:40;;;;;;;;;;;;;;;-140.72;100.00;60397.72;5071428;28;20338;-71
2023/10/19 05:05:05;;;;;;;;;;;;;;;-140.72;100.00;60373.31;5074493;28;19920;-71
2023/10/19 05:07:31;;;;;;;;;;;;;;;-140.72;100.00;60399.75;5070435;28;19943;-68
2023/10/19 05:09:56;;;;;;;;;;;;;;;-140.72;100.00;60328.59;5089217;28;20366;-69
2023/10/19 05:12:21;;;;;;;;;;;;;;;-140.72;100.00;60308.25;5075975;28;20051;-71
2023/10/19 05:14:46;;;;;;;;;;;;;;;-140.72;100.00;60281.81;5072828;28;19917;-70
2023/10/19 05:17:12;;;;;;;;;;;;;;;-140.72;100.00;60251.34;5069067;28;19920;-70
2023/10/19 05:19:38;;;;;;;;;;;;;;;-140.72;100.00;60251.34;5075118;28;20412;-70
2023/10/19 05:22:05;;;;;;;;;;;;;;;-140.72;100.00;60220.84;5073744;28;19921;-70
2023/10/19 05:24:31;;;;;;;;;;;;;;;-140.72;100.00;60239.13;5079888;28;20284;-70
2023/10/19 05:26:56;;;;;;;;;;;;;;;-140.72;100.00;60237.09;5070625;28;20010;-70
2023/10/19 05:29:21;;;;;;;;;;;;;;;-140.72;100.00;60226.94;5072055;28;19920;-70
2023/10/19 05:31:47;;;;;;;;;;;;;;;-140.72;100.00;60218.81;5074087;28;20003;-70
2023/10/19 05:34:12;;;;;;;;;;;;;;;-140.72;100.00;60202.53;5072032;28;20842;-69
2023/10/19 05:36:39;;;;;;;;;;;;;;;-140.72;100.00;60198.47;5063192;28;19978;-70
2023/10/19 05:39:07;;;;;;;;;;;;;;;-140.72;100.00;60196.44;5074854;28;19917;-70
2023/10/19 05:41:33;;;;;;;;;;;;;;;-140.72;100.00;60129.34;5069493;28;21206;-71
2023/10/19 05:43:59;;;;;;;;;;;;;;;-140.72;100.00;60151.72;5072472;28;19916;-71
2023/10/19 05:46:25;;;;;;;;;;;;;;;-140.72;100.00;60167.97;5070730;28;19971;-72
2023/10/19 05:48:50;;;;;;;;;;;;;;;-140.72;100.00;60098.84;5065909;28;19917;-70
2023/10/19 05:51:17;;;;;;;;;;;;;;;-140.72;100.00;60141.53;5073469;28;20056;-71
2023/10/19 05:53:43;;;;;;;;;;;;;;;-140.72;100.00;60109.00;5070285;28;19983;-74
2023/10/19 05:56:09;;;;;;;;;;;;;;;-140.72;100.00;60127.31;5071656;28;19920;-73
2023/10/19 05:58:34;;;;;;;;;;;;;;;-140.72;100.00;60129.34;5069507;28;19961;-73
2023/10/19 06:00:59;;;;;;;;;;;;;;;-140.72;100.00;60127.31;5070447;28;19921;-76
2023/10/19 06:03:24;;;;;;;;;;;;;;;-140.72;100.00;60147.63;5070480;28;19935;-73
2023/10/19 06:05:50;;;;;;;;;;;;;;;-140.72;100.00;60119.19;5071108;28;19989;-73
2023/10/19 06:08:15;;;;;;;;;;;;;;;-140.72;100.00;60113.06;5061995;28;19921;-71
2023/10/19 06:10:42;;;;;;;;;;;;;;;-140.72;100.00;60115.13;5081813;28;20612;-70
2023/10/19 06:13:09;;;;;;;;;;;;;;;-140.72;100.00;60104.94;5076528;28;19916;-71
2023/10/19 06:15:35;;;;;;;;;;;;;;;-140.72;100.00;60098.84;5078375;28;19988;-71
2023/10/19 06:18:00;;;;;;;;;;;;;;;-140.72;100.00;60076.47;5077690;28;19944;-71
2023/10/19 06:20:28;;;;;;;;;;;;;;;-140.72;100.00;60088.69;5076835;28;20383;-71
2023/10/19 06:22:55;;;;;;;;;;;;;;;-140.72;100.00;60062.25;5070266;28;19950;-71
2023/10/19 06:25:21;;;;;;;;;;;;;;;-140.72;100.00;60084.63;5065876;28;19994;-71
2023/10/19 06:27:47;;;;;;;;;;;;;;;-140.72;100.00;60074.44;5080717;28;19987;-70
2023/10/19 06:30:17;;;;;;;;;;;;;;;-140.72;100.00;60098.84;5078036;28;19916;-71
2023/10/19 06:32:43;;;;;;;;;;;;;;;-140.72;100.00;60096.81;5076470;28;19920;-71
2023/10/19 06:35:11;;;;;;;;;;;;;;;-140.72;100.00;60092.75;5076324;28;20007;-71
2023/10/19 06:37:36;;;;;;;;;;;;;;;-140.72;100.00;60113.06;5075837;28;19924;-71
2023/10/19 06:40:01;;;;;;;;;;;;;;;-140.72;100.00;60098.84;5075301;28;19927;-71
2023/10/19 06:42:27;;;;;;;;;;;;;;;-140.72;100.00;60076.47;5086516;28;19935;-70
2023/10/19 06:44:53;;;;;;;;;;;;;;;-140.72;100.00;60141.53;5074501;28;19921;-71
2023/10/19 06:47:18;;;;;;;;;;;;;;;-140.72;100.00;60137.47;5078737;28;20286;-71
2023/10/19 06:49:43;;;;;;;;;;;;;;;-140.72;100.00;60157.81;5086086;28;19975;-70
2023/10/19 06:52:11;;;;;;;;;;;;;;;-140.72;100.00;60131.38;5093000;28;19945;-71
2023/10/19 06:54:37;;;;;;;;;;;;;;;-140.72;100.00;60121.22;5090828;28;19935;-71
2023/10/19 06:57:03;;;;;;;;;;;;;;;-140.72;100.00;60090.72;5079241;28;20267;-70
2023/10/19 06:59:33;;;;;;;;;;;;;;;-140.72;100.00;60092.75;5065306;28;20210;-71
2023/10/19 07:01:58;;;;;;;;;;;;;;;-140.72;100.00;60068.34;5078886;28;19917;-71
2023/10/19 07:04:23;;;;;;;;;;;;;;;-140.72;100.00;60102.91;5077168;28;19978;-71
2023/10/19 07:06:50;;;;;;;;;;;;;;;-140.72;100.00;60074.44;5078361;28;20252;-71
2023/10/19 07:09:15;;;;;;;;;;;;;;;-140.72;100.00;60039.88;5077530;28;19920;-71
2023/10/19 07:11:44;;;;;;;;;;;;;;;-140.72;100.00;60025.66;5078352;28;20381;-71
2023/10/19 07:14:10;;;;;;;;;;;;;;;-140.72;100.00;59987.03;5075858;28;19920;-71
2023/10/19 07:16:35;;;;;;;;;;;;;;;-140.72;100.00;59974.84;5077916;28;19920;-71
2023/10/19 07:19:00;;;;;;;;;;;;;;;-140.72;100.00;59995.16;5073608;28;20275;-71
2023/10/19 07:21:29;;;;;;;;;;;;;;;-140.72;100.00;59946.38;5085770;28;20324;-75
2023/10/19 07:23:55;;;;;;;;;;;;;;;-140.72;100.00;59889.44;5070033;28;20043;-71
2023/10/19 07:26:30;;;;;;;;;;;;;;;-140.72;100.00;59946.38;5074858;28;19917;-71
2023/10/19 07:28:55;;;;;;;;;;;;;;;-140.72;100.00;59903.69;5078336;28;19998;-71
2023/10/19 07:31:21;;;;;;;;;;;;;;;-140.72;100.00;59828.47;5095196;28;19924;-69
2023/10/19 07:33:46;;;;;;;;;;;;;;;-140.72;100.00;59860.97;5084618;28;20342;-70
2023/10/19 07:36:14;;;;;;;;;;;;;;;-140.72;100.00;59824.41;5074213;28;19920;-70
2023/10/19 07:38:39;;;;;;;;;;;;;;;-140.72;100.00;59804.06;5073727;28;19921;-70
2023/10/19 07:41:05;;;;;;;;;;;;;;;-140.72;100.00;59773.56;5075248;28;20349;-70
2023/10/19 07:43:31;;;;;;;;;;;;;;;-140.72;100.00;59761.38;5070110;28;19927;-70
2023/10/19 07:45:56;;;;;;;;;;;;;;;-140.72;100.00;59730.88;5073533;28;19969;-70
2023/10/19 07:48:21;;;;;;;;;;;;;;;-140.72;100.00;59751.22;5073561;28;19952;-71
2023/10/19 07:50:46;;;;;;;;;;;;;;;-140.72;100.00;59747.16;5073964;28;19965;-70
2023/10/19 07:53:12;;;;;;;;;;;;;;;-140.72;100.00;59724.78;5075201;28;19924;-70
2023/10/19 07:55:38;;;;;;;;;;;;;;;-140.72;100.00;59714.63;5066484;28;19921;-70
2023/10/19 07:58:04;;;;;;;;;;;;;;;-140.72;100.00;59712.59;5074356;28;19979;-70
2023/10/19 08:00:29;;;;;;;;;;;;;;;-140.72;100.00;59702.41;5073747;28;19956;-70
2023/10/19 08:02:55;;;;;;;;;;;;;;;-140.72;100.00;59649.56;5087301;28;19921;-70
2023/10/19 08:05:20;;;;;;;;;;;;;;;-140.72;100.00;59688.19;5070774;28;19931;-70
2023/10/19 08:07:49;;;;;;;;;;;;;;;-140.72;100.00;59673.97;5073829;28;19952;-71
2023/10/19 08:10:17;;;;;;;;;;;;;;;-140.72;100.00;59673.97;5073486;28;19921;-71
2023/10/19 08:12:42;;;;;;;;;;;;;;;-140.72;100.00;59671.94;5073580;28;19980;-70
2023/10/19 08:15:11;;;;;;;;;;;;;;;-140.72;100.00;59649.56;5071933;28;19921;-70
2023/10/19 08:17:40;;;;;;;;;;;;;;;-140.72;100.00;59641.44;5073739;28;19920;-70
2023/10/19 08:20:09;;;;;;;;;;;;;;;-140.72;100.00;59610.94;5061474;28;19927;-70
2023/10/19 08:22:36;;;;;;;;;;;;;;;-140.72;100.00;59608.91;5074699;28;20303;-70
2023/10/19 08:25:01;;;;;;;;;;;;;;;-140.72;100.00;59600.78;5070363;28;20244;-71
2023/10/19 08:27:29;;;;;;;;;;;;;;;-140.72;100.00;59541.81;5074143;28;19920;-70
2023/10/19 08:29:55;;;;;;;;;;;;;;;-140.72;100.00;59537.75;5065255;28;19927;-69
2023/10/19 08:32:20;;;;;;;;;;;;;;;-140.72;100.00;59470.69;5092405;28;19940;-69
2023/10/19 08:34:46;;;;;;;;;;;;;;;-140.72;100.00;59344.66;5079199;28;20314;-70
2023/10/19 08:37:11;;;;;;;;;;;;;;;-140.72;100.00;59308.06;5069432;28;19924;-70
2023/10/19 08:39:36;;;;;;;;;;;;;;;-140.72;100.00;59234.88;5080091;28;19926;-70
2023/10/19 08:42:05;;;;;;;;;;;;;;;-140.72;100.00;59110.91;5074176;28;19949;-70
2023/10/19 08:44:30;;;;;;;;;;;;;;;-140.72;100.00;59033.66;5063085;28;19943;-70
2023/10/19 08:46:57;;;;;;;;;;;;;;;-140.72;100.00;58913.75;5070861;28;20358;-70
2023/10/19 08:49:22;;;;;;;;;;;;;;;-140.72;100.00;58795.88;5070294;28;19928;-70
2023/10/19 08:51:48;;;;;;;;;;;;;;;-140.72;100.00;58718.63;5074175;28;20309;-70
2023/10/19 08:54:14;;;;;;;;;;;;;;;-140.72;100.00;58554.03;5081355;28;20266;-70
2023/10/19 08:56:44;;;;;;;;;;;;;;;-140.72;100.00;58460.53;5072827;28;19931;-70
2023/10/19 08:59:10;;;;;;;;;;;;;;;-140.72;100.00;58434.13;5073297;28;20302;-70
2023/10/19 09:01:36;;;;;;;;;;;;;;;-140.72;100.00;58417.84;5072485;28;20024;-70
2023/10/19 09:04:01;;;;;;;;;;;;;;;-140.72;100.00;58318.28;5070845;28;20007;-70
2023/10/19 09:06:30;;;;;;;;;;;;;;;-140.72;100.00;58358.94;5071706;28;19973;-71
2023/10/19 09:08:57;;;;;;;;;;;;;;;-140.72;100.00;58259.34;5086106;28;19920;-77
2023/10/19 09:11:24;;;;;;;;;;;;;;;-140.72;100.00;58261.38;5064034;28;19928;-70
2023/10/19 09:13:50;;;;;;;;;;;;;;;-140.72;100.00;58230.91;5072711;28;19923;-70
2023/10/19 09:16:17;;;;;;;;;;;;;;;-140.72;100.00;58218.72;5071783;28;20409;-70
2023/10/19 09:18:42;;;;;;;;;;;;;;;-140.72;100.00;58161.81;5072942;28;19916;-70
2023/10/19 09:21:11;;;;;;;;;;;;;;;-140.72;100.00;58151.66;5072867;28;20015;-70
2023/10/19 09:23:36;;;;;;;;;;;;;;;-140.72;100.00;58125.22;5071027;28;19961;-70
2023/10/19 09:26:06;;;;;;;;;;;;;;;-140.72;100.00;58145.56;5068080;28;19982;-69
2023/10/19 09:28:34;;;;;;;;;;;;;;;-140.72;100.00;58188.22;5072871;28;19931;-70
2023/10/19 09:31:00;;;;;;;;;;;;;;;-140.72;100.00;58149.63;5070910;28;19974;-69
2023/10/19 09:33:26;;;;;;;;;;;;;;;-140.72;100.00;58086.63;5074984;28;19923;-69
2023/10/19 09:35:56;;;;;;;;;;;;;;;-140.72;100.00;58031.75;5062404;28;19927;-69
2023/10/19 09:38:21;;;;;;;;;;;;;;;-140.72;100.00;58009.41;5069059;28;19916;-69
2023/10/19 09:40:47;;;;;;;;;;;;;;;-140.72;100.00;57956.56;5074099;28;20019;-69
2023/10/19 09:43:16;;;;;;;;;;;;;;;-140.72;100.00;57936.25;5074384;28;19968;-69
2023/10/19 09:45:42;;;;;;;;;;;;;;;-140.72;100.00;57962.66;5071068;28;19920;-69
2023/10/19 09:48:08;;;;;;;;;;;;;;;-140.72;100.00;57942.34;5072344;28;19924;-69
2023/10/19 09:50:33;;;;;;;;;;;;;;;-140.72;100.00;57867.16;5072846;28;19920;-70
2023/10/19 09:52:59;;;;;;;;;;;;;;;-140.72;100.00;57779.81;5074551;28;19924;-70
2023/10/19 09:55:34;;;;;;;;;;;;;;;-140.72;100.00;57737.13;5079731;28;20001;-70
2023/10/19 09:58:07;;;;;;;;;;;;;;;-140.72;100.00;57670.06;5071330;28;19987;-69
2023/10/19 10:00:34;;;;;;;;;;;;;;;-140.72;100.00;57651.78;5071324;28;19927;-69
2023/10/19 10:02:59;;;;;;;;;;;;;;;-140.72;100.00;57645.69;5071849;28;19917;-70
2023/10/19 10:05:43;;;;;;;;;;;;;;;-140.72;100.00;57596.94;5064638;28;19931;-70
2023/10/19 10:08:17;;;;;;;;;;;;;;;-140.72;100.00;57698.53;5060415;28;19917;-70
2023/10/19 10:10:42;;;;;;;;;;;;;;;-140.72;100.00;57716.81;5069046;28;19931;-70
2023/10/19 10:13:26;;;;;;;;;;;;;;;-140.72;100.00;57670.06;5082099;28;20267;-70
2023/10/19 10:15:55;;;;;;;;;;;;;;;-140.72;100.00;57655.84;5075971;28;19920;-69
2023/10/19 10:18:23;;;;;;;;;;;;;;;-140.72;100.00;57588.81;5079315;28;19917;-70
2023/10/19 10:21:04;;;;;;;;;;;;;;;-140.72;100.00;57576.63;5077166;28;19920;-70
2023/10/19 10:23:32;;;;;;;;;;;;;;;-140.72;100.00;57418.13;5102110;28;19924;-70
2023/10/19 10:25:58;;;;;;;;;;;;;;;-140.72;100.00;57306.41;5067044;28;20008;-70
2023/10/19 10:28:23;;;;;;;;;;;;;;;-140.72;100.00;57284.06;5084137;28;19916;-73
2023/10/19 10:31:07;;;;;;;;;;;;;;;-140.72;100.00;57251.53;5074431;28;19924;-70
2023/10/19 10:33:40;;;;;;;;;;;;;;;-140.72;100.00;57284.06;5071626;28;19920;-71
2023/10/19 10:36:06;;;;;;;;;;;;;;;-140.72;100.00;57235.28;5062005;28;19978;-73
2023/10/19 10:38:34;;;;;;;;;;;;;;;-140.72;100.00;57099.19;5070901;28;19916;-70
2023/10/19 10:40:59;;;;;;;;;;;;;;;-140.72;100.00;57052.44;5064640;28;19932;-70
2023/10/19 10:43:24;;;;;;;;;;;;;;;-140.72;100.00;57044.31;5057962;28;19917;-70
2023/10/19 10:45:50;;;;;;;;;;;;;;;-140.72;100.00;57131.69;5063725;28;19928;-70
2023/10/19 10:48:17;;;;;;;;;;;;;;;-140.72;100.00;57111.38;5065048;28;19920;-70
2023/10/19 10:50:42;;;;;;;;;;;;;;;-140.72;100.00;57176.38;5071174;28;19951;-70
2023/10/19 10:53:09;;;;;;;;;;;;;;;-140.72;100.00;57277.97;5072087;28;19962;-70
2023/10/19 10:55:34;;;;;;;;;;;;;;;-140.72;100.00;57320.63;5065043;28;19921;-70
2023/10/19 10:57:59;;;;;;;;;;;;;;;-140.72;100.00;57219.03;5074933;28;20015;-70
2023/10/19 11:00:26;;;;;;;;;;;;;;;-140.72;100.00;57190.59;5073004;28;19981;-70
2023/10/19 11:03:00;;;;;;;;;;;;;;;-140.72;100.00;56985.41;5074106;28;19996;-70
2023/10/19 11:05:25;;;;;;;;;;;;;;;-140.72;100.00;56963.06;5074221;28;20382;-70
2023/10/19 11:08:13;;;;;;;;;;;;;;;-140.72;100.00;56979.31;5073973;28;19942;-70
2023/10/19 11:10:39;;;;;;;;;;;;;;;-140.72;100.00;56973.22;5074957;28;19921;-70
2023/10/19 11:13:06;;;;;;;;;;;;;;;-140.72;100.00;56936.66;5074885;28;19970;-70
2023/10/19 11:15:31;;;;;;;;;;;;;;;-140.72;100.00;56845.25;5073954;28;19973;-70
2023/10/19 11:17:58;;;;;;;;;;;;;;;-140.72;100.00;56849.31;5066410;28;19921;-70
2023/10/19 11:20:24;;;;;;;;;;;;;;;-140.72;100.00;56896.03;5070624;28;19917;-70
2023/10/19 11:22:51;;;;;;;;;;;;;;;-140.72;100.00;56979.31;5066826;28;20015;-70
2023/10/19 11:25:21;;;;;;;;;;;;;;;-140.72;100.00;57076.84;5074065;28;19925;-70
2023/10/19 11:27:47;;;;;;;;;;;;;;;-140.72;100.00;57084.97;5069625;28;20470;-70
2023/10/19 11:30:12;;;;;;;;;;;;;;;-140.72;100.00;57127.63;5077589;28;20007;-70
2023/10/19 11:32:39;;;;;;;;;;;;;;;-140.72;100.00;57064.63;5084355;28;19970;-70
2023/10/19 11:35:06;;;;;;;;;;;;;;;-140.72;100.00;57040.25;5078833;28;19935;-71
2023/10/19 11:37:45;;;;;;;;;;;;;;;-140.72;100.00;57024.00;5072149;28;20058;-70
2023/10/19 11:40:10;;;;;;;;;;;;;;;-140.72;100.00;57021.97;5073513;28;19970;-70
2023/10/19 11:42:36;;;;;;;;;;;;;;;-140.72;100.00;56924.47;5072184;28;20347;-70
2023/10/19 11:45:02;;;;;;;;;;;;;;;-140.72;100.00;56863.53;5074458;28;20348;-70
2023/10/19 11:47:27;;;;;;;;;;;;;;;-140.72;100.00;56883.84;5080710;28;19920;-70
2023/10/19 11:49:53;;;;;;;;;;;;;;;-140.72;100.00;56896.03;5075724;28;19927;-70
2023/10/19 11:52:19;;;;;;;;;;;;;;;-140.72;100.00;56981.34;5065213;28;20465;-70
2023/10/19 11:54:44;;;;;;;;;;;;;;;-140.72;100.00;56969.16;5060562;28;20066;-70
2023/10/19 11:57:09;;;;;;;;;;;;;;;-140.72;100.00;57034.16;5075985;28;19947;-70
2023/10/19 11:59:35;;;;;;;;;;;;;;;-140.72;100.00;57003.69;5070232;28;19927;-70
2023/10/19 12:02:03;;;;;;;;;;;;;;;-140.72;100.00;56985.41;5073193;28;20023;-70
2023/10/19 12:04:29;;;;;;;;;;;;;;;-140.72;100.00;57076.84;5074264;28;19917;-70
2023/10/19 12:06:55;;;;;;;;;;;;;;;-140.72;100.00;57188.56;5070021;28;19921;-69
2023/10/19 12:09:24;;;;;;;;;;;;;;;-140.72;100.00;57263.72;5075801;28;19962;-70
2023/10/19 12:11:49;;;;;;;;;;;;;;;-140.72;100.00;57308.44;5074499;28;19932;-70
2023/10/19 12:14:15;;;;;;;;;;;;;;;-140.72;100.00;57456.75;5073480;28;19922;-70
2023/10/19 12:16:41;;;;;;;;;;;;;;;-140.72;100.00;57477.06;5074274;28;19917;-70
2023/10/19 12:19:07;;;;;;;;;;;;;;;-140.72;100.00;57542.06;5068007;28;19929;-70
2023/10/19 12:21:33;;;;;;;;;;;;;;;-140.72;100.00;57605.06;5065920;28;20328;-70
2023/10/19 12:24:01;;;;;;;;;;;;;;;-140.72;100.00;57755.41;5072182;28;19920;-70
2023/10/19 12:26:26;;;;;;;;;;;;;;;-140.72;100.00;57775.75;5073558;28;20022;-70
2023/10/19 12:28:51;;;;;;;;;;;;;;;-140.72;100.00;57834.66;5061146;28;20331;-73
2023/10/19 12:31:18;;;;;;;;;;;;;;;-140.72;100.00;57832.63;5073759;28;19920;-70
2023/10/19 12:33:44;;;;;;;;;;;;;;;-140.72;100.00;57846.84;5073208;28;19928;-70
2023/10/19 12:38:54;;;;;;;;;;;;;;;-140.72;100.00;57964.69;5067728;28;19921;-70
2023/10/19 12:41:20;;;;;;;;;;;;;;;-140.72;100.00;57934.22;5068569;28;19927;-70
2023/10/19 12:43:46;;;;;;;;;;;;;;;-140.72;100.00;57942.34;5073009;28;20376;-70